sensor_id;sensor_type;location;lat;lon;timestamp;temperature;humidity
5796;DHT22;2924;51.458;7.046;2022-11-30T00:00:51;6.90;99.90
5796;DHT22;2924;51.458;7.046;2022-11-30T00:03:16;6.90;99.90
5796;DHT22;2924;51.458;7.046;2022-11-30T00:05:42;6.90;99.90
5796;DHT22;2924;51.458;7.046;2022-11-30T00:08:08;6.90;99.90
5796;DHT22;2924;51.458;7.046;2022-11-30T00:10:33;6.90;99.90
5796;DHT22;2924;51.458;7.046;2022-11-30T00:12:59;6.90;99.90
5796;DHT22;2924;51.458;7.046;2022-11-30T00:15:25;6.90;99.90
5796;DHT22;2924;51.458;7.046;2022-11-30T00:17:55;6.90;99.90
5796;DHT22;2924;51.458;7.046;2022-11-30T00:20:21;6.90;99.90
5796;DHT22;2924;51.458;7.046;2022-11-30T00:22:47;6.90;99.90
5796;DHT22;2924;51.458;7.046;2022-11-30T00:25:13;6.90;99.90
5796;DHT22;2924;51.458;7.046;2022-11-30T00:27:38;7.00;99.90
5796;DHT22;2924;51.458;7.046;2022-11-30T00:30:04;7.00;99.90
5796;DHT22;2924;51.458;7.046;2022-11-30T00:32:30;7.00;99.90
5796;DHT22;2924;51.458;7.046;2022-11-30T00:34:56;7.00;99.90
5796;DHT22;2924;51.458;7.046;2022-11-30T00:37:22;7.00;99.90
5796;DHT22;2924;51.458;7.046;2022-11-30T00:39:47;7.00;99.90
5796;DHT22;2924;51.458;7.046;2022-11-30T00:42:13;7.00;99.90
5796;DHT22;2924;51.458;7.046;2022-11-30T00:44:39;7.00;99.90
5796;DHT22;2924;51.458;7.046;2022-11-30T00:47:04;7.00;99.90
5796;DHT22;2924;51.458;7.046;2022-11-30T00:49:30;7.00;99.90
5796;DHT22;2924;51.458;7.046;2022-11-30T00:51:58;7.00;99.90
5796;DHT22;2924;51.458;7.046;2022-11-30T00:54:24;7.00;99.90
5796;DHT22;2924;51.458;7.046;2022-11-30T00:56:49;7.00;99.90
5796;DHT22;2924;51.458;7.046;2022-11-30T00:59:15;7.00;99.90
5796;DHT22;2924;51.458;7.046;2022-11-30T01:01:41;7.00;99.90
5796;DHT22;2924;51.458;7.046;2022-11-30T01:04:07;7.00;99.90
5796;DHT22;2924;51.458;7.046;2022-11-30T01:06:32;7.00;99.90
5796;DHT22;2924;51.458;7.046;2022-11-30T01:08:58;7.00;99.90
5796;DHT22;2924;51.458;7.046;2022-11-30T01:11:26;7.00;99.90
5796;DHT22;2924;51.458;7.046;2022-11-30T01:13:52;7.00;99.90
5796;DHT22;2924;51.458;7.046;2022-11-30T01:16:21;7.00;99.90
5796;DHT22;2924;51.458;7.046;2022-11-30T01:18:47;7.00;99.90
5796;DHT22;2924;51.458;7.046;2022-11-30T01:21:16;7.00;99.90
5796;DHT22;2924;51.458;7.046;2022-11-30T01:23:42;7.00;99.90
5796;DHT22;2924;51.458;7.046;2022-11-30T01:26:08;7.00;99.90
5796;DHT22;2924;51.458;7.046;2022-11-30T01:28:34;7.00;99.90
5796;DHT22;2924;51.458;7.046;2022-11-30T01:31:05;7.00;99.90
5796;DHT22;2924;51.458;7.046;2022-11-30T01:33:31;7.00;99.90
5796;DHT22;2924;51.458;7.046;2022-11-30T01:35:58;7.00;99.90
5796;DHT22;2924;51.458;7.046;2022-11-30T01:38:24;7.00;99.90
5796;DHT22;2924;51.458;7.046;2022-11-30T01:40:50;7.00;99.90
5796;DHT22;2924;51.458;7.046;2022-11-30T01:43:18;7.00;99.90
5796;DHT22;2924;51.458;7.046;2022-11-30T01:45:45;7.00;99.90
5796;DHT22;2924;51.458;7.046;2022-11-30T01:48:12;7.10;99.90
5796;DHT22;2924;51.458;7.046;2022-11-30T01:50:37;7.10;99.90
5796;DHT22;2924;51.458;7.046;2022-11-30T01:53:04;7.10;99.90
5796;DHT22;2924;51.458;7.046;2022-11-30T01:55:38;7.00;99.90
5796;DHT22;2924;51.458;7.046;2022-11-30T02:00:34;7.00;99.90
5796;DHT22;2924;51.458;7.046;2022-11-30T02:05:37;7.00;99.90
5796;DHT22;2924;51.458;7.046;2022-11-30T02:08:05;6.90;99.90
5796;DHT22;2924;51.458;7.046;2022-11-30T02:10:40;6.90;99.90
5796;DHT22;2924;51.458;7.046;2022-11-30T02:18:35;6.70;99.90
5796;DHT22;2924;51.458;7.046;2022-11-30T02:21:07;6.70;99.90
5796;DHT22;2924;51.458;7.046;2022-11-30T02:29:20;6.50;99.90
5796;DHT22;2924;51.458;7.046;2022-11-30T02:31:59;6.50;99.90
5796;DHT22;2924;51.458;7.046;2022-11-30T02:34:30;6.40;99.90
5796;DHT22;2924;51.458;7.046;2022-11-30T02:36:58;6.40;99.90
5796;DHT22;2924;51.458;7.046;2022-11-30T02:39:25;6.20;99.90
5796;DHT22;2924;51.458;7.046;2022-11-30T02:41:51;6.30;99.90
5796;DHT22;2924;51.458;7.046;2022-11-30T02:44:16;6.20;99.90
5796;DHT22;2924;51.458;7.046;2022-11-30T02:46:51;6.20;99.90
5796;DHT22;2924;51.458;7.046;2022-11-30T02:50:07;6.20;99.90
5796;DHT22;2924;51.458;7.046;2022-11-30T02:52:10;6.20;99.90
5796;DHT22;2924;51.458;7.046;2022-11-30T02:54:37;6.10;99.90
5796;DHT22;2924;51.458;7.046;2022-11-30T02:57:03;6.10;99.90
5796;DHT22;2924;51.458;7.046;2022-11-30T02:59:29;6.10;99.90
5796;DHT22;2924;51.458;7.046;2022-11-30T03:01:54;6.10;99.90
5796;DHT22;2924;51.458;7.046;2022-11-30T03:04:20;6.10;99.90
5796;DHT22;2924;51.458;7.046;2022-11-30T03:06:46;6.10;99.90
5796;DHT22;2924;51.458;7.046;2022-11-30T03:09:12;6.00;99.90
5796;DHT22;2924;51.458;7.046;2022-11-30T03:11:38;6.00;99.90
5796;DHT22;2924;51.458;7.046;2022-11-30T03:14:04;5.90;99.90
5796;DHT22;2924;51.458;7.046;2022-11-30T03:16:30;5.90;99.90
5796;DHT22;2924;51.458;7.046;2022-11-30T03:18:57;5.90;99.90
5796;DHT22;2924;51.458;7.046;2022-11-30T03:21:23;5.90;99.90
5796;DHT22;2924;51.458;7.046;2022-11-30T03:23:49;5.90;99.90
5796;DHT22;2924;51.458;7.046;2022-11-30T03:26:15;5.80;99.90
5796;DHT22;2924;51.458;7.046;2022-11-30T03:28:40;5.80;99.90
5796;DHT22;2924;51.458;7.046;2022-11-30T03:31:10;5.80;99.90
5796;DHT22;2924;51.458;7.046;2022-11-30T03:33:36;5.80;99.90
5796;DHT22;2924;51.458;7.046;2022-11-30T03:36:04;5.70;99.90
5796;DHT22;2924;51.458;7.046;2022-11-30T03:38:31;5.60;99.90
5796;DHT22;2924;51.458;7.046;2022-11-30T03:41:02;5.60;99.90
5796;DHT22;2924;51.458;7.046;2022-11-30T03:43:28;5.50;99.90
5796;DHT22;2924;51.458;7.046;2022-11-30T03:45:54;5.50;99.90
5796;DHT22;2924;51.458;7.046;2022-11-30T03:48:20;5.50;99.90
5796;DHT22;2924;51.458;7.046;2022-11-30T03:50:46;5.40;99.90
5796;DHT22;2924;51.458;7.046;2022-11-30T03:53:15;5.40;99.90
5796;DHT22;2924;51.458;7.046;2022-11-30T03:55:41;5.40;99.90
5796;DHT22;2924;51.458;7.046;2022-11-30T03:58:07;5.40;99.90
5796;DHT22;2924;51.458;7.046;2022-11-30T04:00:32;5.40;99.90
5796;DHT22;2924;51.458;7.046;2022-11-30T04:02:58;5.50;99.90
5796;DHT22;2924;51.458;7.046;2022-11-30T04:05:23;5.50;99.90
5796;DHT22;2924;51.458;7.046;2022-11-30T04:07:49;5.50;99.90
5796;DHT22;2924;51.458;7.046;2022-11-30T04:10:15;5.50;99.90
5796;DHT22;2924;51.458;7.046;2022-11-30T04:12:40;5.40;99.90
5796;DHT22;2924;51.458;7.046;2022-11-30T04:15:06;5.40;99.90
5796;DHT22;2924;51.458;7.046;2022-11-30T04:17:32;5.40;99.90
5796;DHT22;2924;51.458;7.046;2022-11-30T04:19:58;5.40;99.90
5796;DHT22;2924;51.458;7.046;2022-11-30T04:22:23;5.40;99.90
5796;DHT22;2924;51.458;7.046;2022-11-30T04:24:49;5.40;99.90
5796;DHT22;2924;51.458;7.046;2022-11-30T04:27:15;5.40;99.90
5796;DHT22;2924;51.458;7.046;2022-11-30T04:29:40;5.40;99.90
5796;DHT22;2924;51.458;7.046;2022-11-30T04:32:06;5.40;99.90
5796;DHT22;2924;51.458;7.046;2022-11-30T04:34:31;5.40;99.90
5796;DHT22;2924;51.458;7.046;2022-11-30T04:36:57;5.40;99.90
5796;DHT22;2924;51.458;7.046;2022-11-30T04:39:23;5.40;99.90
5796;DHT22;2924;51.458;7.046;2022-11-30T04:41:48;5.40;99.90
5796;DHT22;2924;51.458;7.046;2022-11-30T04:44:14;5.40;99.90
5796;DHT22;2924;51.458;7.046;2022-11-30T04:46:40;5.40;99.90
5796;DHT22;2924;51.458;7.046;2022-11-30T04:49:05;5.40;99.90
5796;DHT22;2924;51.458;7.046;2022-11-30T04:51:31;5.50;99.90
5796;DHT22;2924;51.458;7.046;2022-11-30T04:53:56;5.50;99.90
5796;DHT22;2924;51.458;7.046;2022-11-30T04:56:22;5.50;99.90
5796;DHT22;2924;51.458;7.046;2022-11-30T04:58:48;5.40;99.90
5796;DHT22;2924;51.458;7.046;2022-11-30T05:01:13;5.40;99.90
5796;DHT22;2924;51.458;7.046;2022-11-30T05:03:39;5.40;99.90
5796;DHT22;2924;51.458;7.046;2022-11-30T05:06:05;5.50;99.90
5796;DHT22;2924;51.458;7.046;2022-11-30T05:08:30;5.50;99.90
5796;DHT22;2924;51.458;7.046;2022-11-30T05:10:56;5.40;99.90
5796;DHT22;2924;51.458;7.046;2022-11-30T05:13:23;5.40;99.90
5796;DHT22;2924;51.458;7.046;2022-11-30T05:15:49;5.40;99.90
5796;DHT22;2924;51.458;7.046;2022-11-30T05:18:15;5.40;99.90
5796;DHT22;2924;51.458;7.046;2022-11-30T05:20:46;5.50;99.90
5796;DHT22;2924;51.458;7.046;2022-11-30T05:23:12;5.40;99.90
5796;DHT22;2924;51.458;7.046;2022-11-30T05:25:38;5.50;99.90
5796;DHT22;2924;51.458;7.046;2022-11-30T05:28:03;5.50;99.90
5796;DHT22;2924;51.458;7.046;2022-11-30T05:30:29;5.40;99.90
5796;DHT22;2924;51.458;7.046;2022-11-30T05:32:55;5.50;99.90
5796;DHT22;2924;51.458;7.046;2022-11-30T05:35:20;5.40;99.90
5796;DHT22;2924;51.458;7.046;2022-11-30T05:37:46;5.40;99.90
5796;DHT22;2924;51.458;7.046;2022-11-30T05:40:12;5.40;99.90
5796;DHT22;2924;51.458;7.046;2022-11-30T05:42:37;5.40;99.90
5796;DHT22;2924;51.458;7.046;2022-11-30T05:45:03;5.50;99.90
5796;DHT22;2924;51.458;7.046;2022-11-30T05:47:29;5.50;99.90
5796;DHT22;2924;51.458;7.046;2022-11-30T05:49:55;5.50;99.90
5796;DHT22;2924;51.458;7.046;2022-11-30T05:52:20;5.40;99.90
5796;DHT22;2924;51.458;7.046;2022-11-30T05:54:46;5.40;99.90
5796;DHT22;2924;51.458;7.046;2022-11-30T05:57:11;5.50;99.90
5796;DHT22;2924;51.458;7.046;2022-11-30T05:59:37;5.40;99.90
5796;DHT22;2924;51.458;7.046;2022-11-30T06:02:03;5.50;99.90
5796;DHT22;2924;51.458;7.046;2022-11-30T06:04:28;5.40;99.90
5796;DHT22;2924;51.458;7.046;2022-11-30T06:06:54;5.40;99.90
5796;DHT22;2924;51.458;7.046;2022-11-30T06:09:20;5.50;99.90
5796;DHT22;2924;51.458;7.046;2022-11-30T06:11:46;5.40;99.90
5796;DHT22;2924;51.458;7.046;2022-11-30T06:14:12;5.40;99.90
5796;DHT22;2924;51.458;7.046;2022-11-30T06:16:38;5.40;99.90
5796;DHT22;2924;51.458;7.046;2022-11-30T06:19:04;5.40;99.90
5796;DHT22;2924;51.458;7.046;2022-11-30T06:21:29;5.40;99.90
5796;DHT22;2924;51.458;7.046;2022-11-30T06:23:56;5.40;99.90
5796;DHT22;2924;51.458;7.046;2022-11-30T06:26:22;5.40;99.90
5796;DHT22;2924;51.458;7.046;2022-11-30T06:28:47;5.50;99.90
5796;DHT22;2924;51.458;7.046;2022-11-30T06:31:13;5.50;99.90
5796;DHT22;2924;51.458;7.046;2022-11-30T06:33:39;5.50;99.90
5796;DHT22;2924;51.458;7.046;2022-11-30T06:36:05;5.50;99.90
5796;DHT22;2924;51.458;7.046;2022-11-30T06:38:30;5.50;99.90
5796;DHT22;2924;51.458;7.046;2022-11-30T06:41:07;5.50;99.90
5796;DHT22;2924;51.458;7.046;2022-11-30T06:43:37;5.50;99.90
5796;DHT22;2924;51.458;7.046;2022-11-30T06:46:04;5.50;99.90
5796;DHT22;2924;51.458;7.046;2022-11-30T06:48:31;5.50;99.90
5796;DHT22;2924;51.458;7.046;2022-11-30T06:50:57;5.50;99.90
5796;DHT22;2924;51.458;7.046;2022-11-30T06:53:23;5.50;99.90
5796;DHT22;2924;51.458;7.046;2022-11-30T06:55:49;5.50;99.90
5796;DHT22;2924;51.458;7.046;2022-11-30T06:58:15;5.50;99.90
5796;DHT22;2924;51.458;7.046;2022-11-30T07:00:41;5.50;99.90
5796;DHT22;2924;51.458;7.046;2022-11-30T07:03:07;5.50;99.90
5796;DHT22;2924;51.458;7.046;2022-11-30T07:05:41;5.50;99.90
5796;DHT22;2924;51.458;7.046;2022-11-30T07:08:08;5.50;99.90
5796;DHT22;2924;51.458;7.046;2022-11-30T07:10:38;5.50;99.90
5796;DHT22;2924;51.458;7.046;2022-11-30T07:13:04;5.50;99.90
5796;DHT22;2924;51.458;7.046;2022-11-30T07:15:29;5.50;99.90
5796;DHT22;2924;51.458;7.046;2022-11-30T07:17:55;5.50;99.90
5796;DHT22;2924;51.458;7.046;2022-11-30T07:20:24;5.50;99.90
5796;DHT22;2924;51.458;7.046;2022-11-30T07:22:49;5.50;99.90
5796;DHT22;2924;51.458;7.046;2022-11-30T07:25:19;5.50;99.90
5796;DHT22;2924;51.458;7.046;2022-11-30T07:28:03;5.50;99.90
5796;DHT22;2924;51.458;7.046;2022-11-30T07:30:30;5.50;99.90
5796;DHT22;2924;51.458;7.046;2022-11-30T07:32:55;5.50;99.90
5796;DHT22;2924;51.458;7.046;2022-11-30T07:35:21;5.50;99.90
5796;DHT22;2924;51.458;7.046;2022-11-30T07:37:47;5.50;99.90
5796;DHT22;2924;51.458;7.046;2022-11-30T07:40:12;5.50;99.90
5796;DHT22;2924;51.458;7.046;2022-11-30T07:42:38;5.50;99.90
5796;DHT22;2924;51.458;7.046;2022-11-30T07:45:04;5.50;99.90
5796;DHT22;2924;51.458;7.046;2022-11-30T07:47:30;5.50;99.90
5796;DHT22;2924;51.458;7.046;2022-11-30T07:49:55;5.50;99.90
5796;DHT22;2924;51.458;7.046;2022-11-30T07:52:21;5.50;99.90
5796;DHT22;2924;51.458;7.046;2022-11-30T07:54:47;5.50;99.90
5796;DHT22;2924;51.458;7.046;2022-11-30T07:57:13;5.50;99.90
5796;DHT22;2924;51.458;7.046;2022-11-30T07:59:38;5.50;99.90
5796;DHT22;2924;51.458;7.046;2022-11-30T08:02:04;5.50;99.90
5796;DHT22;2924;51.458;7.046;2022-11-30T08:04:29;5.50;99.90
5796;DHT22;2924;51.458;7.046;2022-11-30T08:06:55;5.60;99.90
5796;DHT22;2924;51.458;7.046;2022-11-30T08:09:21;5.60;99.90
5796;DHT22;2924;51.458;7.046;2022-11-30T08:11:47;5.60;99.90
5796;DHT22;2924;51.458;7.046;2022-11-30T08:14:13;5.60;99.90
5796;DHT22;2924;51.458;7.046;2022-11-30T08:16:39;5.70;99.90
5796;DHT22;2924;51.458;7.046;2022-11-30T08:19:05;5.70;99.90
5796;DHT22;2924;51.458;7.046;2022-11-30T08:21:30;5.60;99.90
5796;DHT22;2924;51.458;7.046;2022-11-30T08:23:57;5.70;99.90
5796;DHT22;2924;51.458;7.046;2022-11-30T08:26:25;5.70;99.90
5796;DHT22;2924;51.458;7.046;2022-11-30T08:28:52;5.70;99.90
5796;DHT22;2924;51.458;7.046;2022-11-30T08:31:21;5.70;99.90
5796;DHT22;2924;51.458;7.046;2022-11-30T08:33:47;5.70;99.90
5796;DHT22;2924;51.458;7.046;2022-11-30T08:36:17;5.70;99.90
5796;DHT22;2924;51.458;7.046;2022-11-30T08:38:44;5.70;99.90
5796;DHT22;2924;51.458;7.046;2022-11-30T08:41:12;5.70;99.90
5796;DHT22;2924;51.458;7.046;2022-11-30T08:43:38;5.80;99.90
5796;DHT22;2924;51.458;7.046;2022-11-30T08:46:06;5.80;99.90
5796;DHT22;2924;51.458;7.046;2022-11-30T08:48:33;5.80;99.90
5796;DHT22;2924;51.458;7.046;2022-11-30T08:51:02;5.80;99.90
5796;DHT22;2924;51.458;7.046;2022-11-30T08:53:29;5.80;99.90
5796;DHT22;2924;51.458;7.046;2022-11-30T08:55:56;5.80;99.90
5796;DHT22;2924;51.458;7.046;2022-11-30T08:58:22;5.80;99.90
5796;DHT22;2924;51.458;7.046;2022-11-30T09:00:48;5.80;99.90
5796;DHT22;2924;51.458;7.046;2022-11-30T09:03:14;5.80;99.90
5796;DHT22;2924;51.458;7.046;2022-11-30T09:05:39;5.90;99.90
5796;DHT22;2924;51.458;7.046;2022-11-30T09:08:05;5.90;99.90
5796;DHT22;2924;51.458;7.046;2022-11-30T09:10:30;5.90;99.90
5796;DHT22;2924;51.458;7.046;2022-11-30T09:12:56;5.90;99.90
5796;DHT22;2924;51.458;7.046;2022-11-30T09:15:22;5.80;99.90
5796;DHT22;2924;51.458;7.046;2022-11-30T09:17:47;5.90;99.90
5796;DHT22;2924;51.458;7.046;2022-11-30T09:20:13;5.90;99.90
5796;DHT22;2924;51.458;7.046;2022-11-30T09:22:39;5.90;99.90
5796;DHT22;2924;51.458;7.046;2022-11-30T09:25:04;5.90;99.90
5796;DHT22;2924;51.458;7.046;2022-11-30T09:27:31;5.80;99.90
5796;DHT22;2924;51.458;7.046;2022-11-30T09:29:57;5.80;99.90
5796;DHT22;2924;51.458;7.046;2022-11-30T09:32:22;5.80;99.90
5796;DHT22;2924;51.458;7.046;2022-11-30T09:34:48;5.80;99.90
5796;DHT22;2924;51.458;7.046;2022-11-30T09:37:14;5.80;99.90
5796;DHT22;2924;51.458;7.046;2022-11-30T09:39:39;5.80;99.90
5796;DHT22;2924;51.458;7.046;2022-11-30T09:44:53;5.80;99.90
5796;DHT22;2924;51.458;7.046;2022-11-30T09:50:14;5.80;99.90
5796;DHT22;2924;51.458;7.046;2022-11-30T09:52:47;5.80;99.90
5796;DHT22;2924;51.458;7.046;2022-11-30T09:55:29;5.90;99.90
5796;DHT22;2924;51.458;7.046;2022-11-30T09:58:04;5.80;99.90
5796;DHT22;2924;51.458;7.046;2022-11-30T10:00:31;5.80;99.90
5796;DHT22;2924;51.458;7.046;2022-11-30T10:03:01;5.80;99.90
5796;DHT22;2924;51.458;7.046;2022-11-30T10:10:51;5.90;99.90
5796;DHT22;2924;51.458;7.046;2022-11-30T10:16:31;5.90;99.90
5796;DHT22;2924;51.458;7.046;2022-11-30T10:22:20;6.00;99.90
5796;DHT22;2924;51.458;7.046;2022-11-30T10:25:22;6.00;99.90
5796;DHT22;2924;51.458;7.046;2022-11-30T10:27:53;6.10;99.90
5796;DHT22;2924;51.458;7.046;2022-11-30T10:30:24;6.10;99.90
5796;DHT22;2924;51.458;7.046;2022-11-30T10:32:55;6.10;99.90
5796;DHT22;2924;51.458;7.046;2022-11-30T10:35:33;6.10;99.90
5796;DHT22;2924;51.458;7.046;2022-11-30T10:38:10;6.10;99.90
5796;DHT22;2924;51.458;7.046;2022-11-30T10:40:45;6.10;99.90
5796;DHT22;2924;51.458;7.046;2022-11-30T10:43:25;6.10;99.90
5796;DHT22;2924;51.458;7.046;2022-11-30T10:45:52;6.10;99.90
5796;DHT22;2924;51.458;7.046;2022-11-30T10:48:36;6.10;99.90
5796;DHT22;2924;51.458;7.046;2022-11-30T10:51:06;6.20;99.90
5796;DHT22;2924;51.458;7.046;2022-11-30T10:53:32;6.20;99.90
5796;DHT22;2924;51.458;7.046;2022-11-30T10:56:02;6.20;99.90
5796;DHT22;2924;51.458;7.046;2022-11-30T10:58:38;6.30;99.90
5796;DHT22;2924;51.458;7.046;2022-11-30T11:01:07;6.30;99.90
5796;DHT22;2924;51.458;7.046;2022-11-30T11:03:34;6.40;99.90
5796;DHT22;2924;51.458;7.046;2022-11-30T11:06:20;6.40;99.90
5796;DHT22;2924;51.458;7.046;2022-11-30T11:08:47;6.50;99.90
5796;DHT22;2924;51.458;7.046;2022-11-30T11:13:51;6.50;99.90
5796;DHT22;2924;51.458;7.046;2022-11-30T11:16:17;6.60;99.90
5796;DHT22;2924;51.458;7.046;2022-11-30T11:18:54;6.60;99.90
5796;DHT22;2924;51.458;7.046;2022-11-30T11:21:21;6.60;99.90
5796;DHT22;2924;51.458;7.046;2022-11-30T11:23:52;6.70;99.90
5796;DHT22;2924;51.458;7.046;2022-11-30T11:26:24;6.70;99.90
5796;DHT22;2924;51.458;7.046;2022-11-30T11:28:52;6.60;99.90
5796;DHT22;2924;51.458;7.046;2022-11-30T11:33:59;6.70;99.90
5796;DHT22;2924;51.458;7.046;2022-11-30T11:36:27;6.80;99.90
5796;DHT22;2924;51.458;7.046;2022-11-30T11:38:53;6.70;99.90
5796;DHT22;2924;51.458;7.046;2022-11-30T11:41:35;6.70;99.90
5796;DHT22;2924;51.458;7.046;2022-11-30T11:46:36;6.80;99.90
5796;DHT22;2924;51.458;7.046;2022-11-30T11:49:05;6.80;99.90
5796;DHT22;2924;51.458;7.046;2022-11-30T11:51:36;6.90;99.90
5796;DHT22;2924;51.458;7.046;2022-11-30T11:54:22;6.90;99.90
5796;DHT22;2924;51.458;7.046;2022-11-30T11:56:49;6.90;99.90
5796;DHT22;2924;51.458;7.046;2022-11-30T11:59:19;6.90;99.90
5796;DHT22;2924;51.458;7.046;2022-11-30T12:05:08;6.80;99.90
5796;DHT22;2924;51.458;7.046;2022-11-30T12:08:44;6.80;99.90
5796;DHT22;2924;51.458;7.046;2022-11-30T12:10:51;6.80;99.90
5796;DHT22;2924;51.458;7.046;2022-11-30T12:13:22;6.70;99.90
5796;DHT22;2924;51.458;7.046;2022-11-30T12:18:46;6.60;99.90
5796;DHT22;2924;51.458;7.046;2022-11-30T12:21:15;6.70;99.90
5796;DHT22;2924;51.458;7.046;2022-11-30T12:24:04;6.70;99.90
5796;DHT22;2924;51.458;7.046;2022-11-30T12:26:39;6.70;99.90
5796;DHT22;2924;51.458;7.046;2022-11-30T12:32:19;6.50;99.90
5796;DHT22;2924;51.458;7.046;2022-11-30T12:34:53;6.50;99.90
5796;DHT22;2924;51.458;7.046;2022-11-30T12:40:23;6.50;99.90
5796;DHT22;2924;51.458;7.046;2022-11-30T12:42:55;6.40;99.90
5796;DHT22;2924;51.458;7.046;2022-11-30T12:45:43;6.40;99.90
5796;DHT22;2924;51.458;7.046;2022-11-30T12:48:32;6.40;99.90
5796;DHT22;2924;51.458;7.046;2022-11-30T12:54:17;6.40;99.90
5796;DHT22;2924;51.458;7.046;2022-11-30T12:56:56;6.50;99.90
5796;DHT22;2924;51.458;7.046;2022-11-30T13:05:06;6.40;99.90
5796;DHT22;2924;51.458;7.046;2022-11-30T13:12:52;6.40;99.90
5796;DHT22;2924;51.458;7.046;2022-11-30T13:15:21;6.40;99.90
5796;DHT22;2924;51.458;7.046;2022-11-30T13:17:49;6.30;99.90
5796;DHT22;2924;51.458;7.046;2022-11-30T13:20:36;6.30;99.90
5796;DHT22;2924;51.458;7.046;2022-11-30T13:25:55;6.30;99.90
5796;DHT22;2924;51.458;7.046;2022-11-30T13:31:30;6.20;99.90
5796;DHT22;2924;51.458;7.046;2022-11-30T13:33:59;6.20;99.90
5796;DHT22;2924;51.458;7.046;2022-11-30T13:44:34;6.20;99.90
5796;DHT22;2924;51.458;7.046;2022-11-30T13:47:04;6.10;99.90
5796;DHT22;2924;51.458;7.046;2022-11-30T13:49:31;6.10;99.90
5796;DHT22;2924;51.458;7.046;2022-11-30T13:51:59;6.10;99.90
5796;DHT22;2924;51.458;7.046;2022-11-30T13:54:39;6.20;99.90
5796;DHT22;2924;51.458;7.046;2022-11-30T13:59:48;6.10;99.90
5796;DHT22;2924;51.458;7.046;2022-11-30T14:10:38;6.20;99.90
5796;DHT22;2924;51.458;7.046;2022-11-30T14:18:29;6.20;99.90
5796;DHT22;2924;51.458;7.046;2022-11-30T14:21:15;6.20;99.90
5796;DHT22;2924;51.458;7.046;2022-11-30T14:26:29;6.30;99.90
5796;DHT22;2924;51.458;7.046;2022-11-30T14:29:02;6.20;99.90
5796;DHT22;2924;51.458;7.046;2022-11-30T14:31:54;6.30;99.90
5796;DHT22;2924;51.458;7.046;2022-11-30T14:34:24;6.20;99.90
5796;DHT22;2924;51.458;7.046;2022-11-30T14:36:55;6.20;99.90
5796;DHT22;2924;51.458;7.046;2022-11-30T14:39:33;6.20;99.90
5796;DHT22;2924;51.458;7.046;2022-11-30T14:42:00;6.20;99.90
5796;DHT22;2924;51.458;7.046;2022-11-30T14:44:26;6.10;99.90
5796;DHT22;2924;51.458;7.046;2022-11-30T14:46:52;6.10;99.90
5796;DHT22;2924;51.458;7.046;2022-11-30T14:49:22;6.10;99.90
5796;DHT22;2924;51.458;7.046;2022-11-30T14:51:51;6.10;99.90
5796;DHT22;2924;51.458;7.046;2022-11-30T15:00:21;6.00;99.90
5796;DHT22;2924;51.458;7.046;2022-11-30T15:02:48;6.00;99.90
5796;DHT22;2924;51.458;7.046;2022-11-30T15:05:16;6.00;99.90
5796;DHT22;2924;51.458;7.046;2022-11-30T15:07:43;5.90;99.90
5796;DHT22;2924;51.458;7.046;2022-11-30T15:10:28;6.00;99.90
5796;DHT22;2924;51.458;7.046;2022-11-30T15:12:56;5.90;99.90
5796;DHT22;2924;51.458;7.046;2022-11-30T15:15:25;5.90;99.90
5796;DHT22;2924;51.458;7.046;2022-11-30T15:18:15;5.90;99.90
5796;DHT22;2924;51.458;7.046;2022-11-30T15:20:42;5.90;99.90
5796;DHT22;2924;51.458;7.046;2022-11-30T15:23:12;5.90;99.90
5796;DHT22;2924;51.458;7.046;2022-11-30T15:25:44;5.90;99.90
5796;DHT22;2924;51.458;7.046;2022-11-30T15:28:16;5.90;99.90
5796;DHT22;2924;51.458;7.046;2022-11-30T15:30:43;5.90;99.90
5796;DHT22;2924;51.458;7.046;2022-11-30T15:33:17;5.90;99.90
5796;DHT22;2924;51.458;7.046;2022-11-30T15:35:45;5.90;99.90
5796;DHT22;2924;51.458;7.046;2022-11-30T15:38:18;5.80;99.90
5796;DHT22;2924;51.458;7.046;2022-11-30T15:40:44;5.80;99.90
5796;DHT22;2924;51.458;7.046;2022-11-30T15:43:21;5.80;99.90
5796;DHT22;2924;51.458;7.046;2022-11-30T15:45:55;5.70;99.90
5796;DHT22;2924;51.458;7.046;2022-11-30T15:48:28;5.70;99.90
5796;DHT22;2924;51.458;7.046;2022-11-30T15:50:53;5.70;99.90
5796;DHT22;2924;51.458;7.046;2022-11-30T15:53:23;5.70;99.90
5796;DHT22;2924;51.458;7.046;2022-11-30T15:55:51;5.70;99.90
5796;DHT22;2924;51.458;7.046;2022-11-30T15:58:37;5.70;99.90
5796;DHT22;2924;51.458;7.046;2022-11-30T16:06:22;5.70;99.90
5796;DHT22;2924;51.458;7.046;2022-11-30T16:08:49;5.80;99.90
5796;DHT22;2924;51.458;7.046;2022-11-30T16:11:16;5.70;99.90
5796;DHT22;2924;51.458;7.046;2022-11-30T16:13:42;5.70;99.90
5796;DHT22;2924;51.458;7.046;2022-11-30T16:16:23;5.70;99.90
5796;DHT22;2924;51.458;7.046;2022-11-30T16:18:50;5.70;99.90
5796;DHT22;2924;51.458;7.046;2022-11-30T16:21:17;5.70;99.90
5796;DHT22;2924;51.458;7.046;2022-11-30T16:23:44;5.70;99.90
5796;DHT22;2924;51.458;7.046;2022-11-30T16:26:17;5.70;99.90
5796;DHT22;2924;51.458;7.046;2022-11-30T16:28:43;5.70;99.90
5796;DHT22;2924;51.458;7.046;2022-11-30T16:31:17;5.70;99.90
5796;DHT22;2924;51.458;7.046;2022-11-30T16:33:45;5.70;99.90
5796;DHT22;2924;51.458;7.046;2022-11-30T16:36:17;5.70;99.90
5796;DHT22;2924;51.458;7.046;2022-11-30T16:38:47;5.70;99.90
5796;DHT22;2924;51.458;7.046;2022-11-30T16:41:20;5.70;99.90
5796;DHT22;2924;51.458;7.046;2022-11-30T16:43:47;5.60;99.90
5796;DHT22;2924;51.458;7.046;2022-11-30T16:46:19;5.60;99.90
5796;DHT22;2924;51.458;7.046;2022-11-30T16:48:46;5.50;99.90
5796;DHT22;2924;51.458;7.046;2022-11-30T16:53:43;5.50;99.90
5796;DHT22;2924;51.458;7.046;2022-11-30T16:56:13;5.50;99.90
5796;DHT22;2924;51.458;7.046;2022-11-30T16:58:39;5.50;99.90
5796;DHT22;2924;51.458;7.046;2022-11-30T17:01:09;5.50;99.90
5796;DHT22;2924;51.458;7.046;2022-11-30T17:03:35;5.50;99.90
5796;DHT22;2924;51.458;7.046;2022-11-30T17:06:02;5.50;99.90
5796;DHT22;2924;51.458;7.046;2022-11-30T17:08:28;5.50;99.90
5796;DHT22;2924;51.458;7.046;2022-11-30T17:10:54;5.60;99.90
5796;DHT22;2924;51.458;7.046;2022-11-30T17:13:20;5.50;99.90
5796;DHT22;2924;51.458;7.046;2022-11-30T17:15:46;5.50;99.90
5796;DHT22;2924;51.458;7.046;2022-11-30T17:18:12;5.50;99.90
5796;DHT22;2924;51.458;7.046;2022-11-30T17:20:38;5.50;99.90
5796;DHT22;2924;51.458;7.046;2022-11-30T17:23:04;5.50;99.90
5796;DHT22;2924;51.458;7.046;2022-11-30T17:25:30;5.50;99.90
5796;DHT22;2924;51.458;7.046;2022-11-30T17:27:56;5.50;99.90
5796;DHT22;2924;51.458;7.046;2022-11-30T17:30:22;5.50;99.90
5796;DHT22;2924;51.458;7.046;2022-11-30T17:32:49;5.40;99.90
5796;DHT22;2924;51.458;7.046;2022-11-30T17:35:16;5.40;99.90
5796;DHT22;2924;51.458;7.046;2022-11-30T17:37:41;5.30;99.90
5796;DHT22;2924;51.458;7.046;2022-11-30T17:40:08;5.30;99.90
5796;DHT22;2924;51.458;7.046;2022-11-30T17:42:37;5.40;99.90
5796;DHT22;2924;51.458;7.046;2022-11-30T17:45:03;5.40;99.90
5796;DHT22;2924;51.458;7.046;2022-11-30T17:47:29;5.30;99.90
5796;DHT22;2924;51.458;7.046;2022-11-30T17:49:54;5.30;99.90
5796;DHT22;2924;51.458;7.046;2022-11-30T17:52:21;5.30;99.90
5796;DHT22;2924;51.458;7.046;2022-11-30T17:54:46;5.30;99.90
5796;DHT22;2924;51.458;7.046;2022-11-30T17:57:12;5.30;99.90
5796;DHT22;2924;51.458;7.046;2022-11-30T17:59:37;5.30;99.90
5796;DHT22;2924;51.458;7.046;2022-11-30T18:02:03;5.30;99.90
5796;DHT22;2924;51.458;7.046;2022-11-30T18:04:29;5.20;99.90
5796;DHT22;2924;51.458;7.046;2022-11-30T18:06:54;5.20;99.90
5796;DHT22;2924;51.458;7.046;2022-11-30T18:09:20;5.20;99.90
5796;DHT22;2924;51.458;7.046;2022-11-30T18:11:48;5.20;99.90
5796;DHT22;2924;51.458;7.046;2022-11-30T18:14:14;5.20;99.90
5796;DHT22;2924;51.458;7.046;2022-11-30T18:16:39;5.20;99.90
5796;DHT22;2924;51.458;7.046;2022-11-30T18:19:05;5.20;99.90